Anaktuvuk Pass Airport
PAKP : now visible

Airfield :











YOU CAN JOIN US ON...

 
LOGIN :

Register | Disclaimer

   EN    FR    IT 

 









Legend :    VFR   Marginal VFR   IFR   Intensive IFR   Very Intensive IFR
Visi :
Ceiling :
>= 8 km
>= 3000ft
5 to 8 km
1000 to 3000 ft
1500m to 5 km
500 to 1000 ft
800 to 1500m
200 to 500 ft
< 800m
< 200 ft
Symbols :   Thunderstorms  Fog  Heavy snow  Heavy precipitations  Wind > 20 kt






- Airport Elevation : 2102 ft
- IATA code : AKP


PAKP - Anaktuvuk Pass

CURRENT METAR :
  • 230056Z AUTO 22013G16KT 9SM -SN OVC040 M03/M05 A2984 RMK AO2 SLP153 P0000 T10331050 FZRANO

EXPIRED METARs :
  • 230005Z AUTO 23013KT 8SM -SN FEW015 BKN034 OVC050 M03/M05 A2984 RMK AO2 P0000 FZRANO
  • 222356Z AUTO 23014KT 9SM -SN FEW015 BKN022 BKN034 M03/M05 A2983 RMK AO2 SLP151 P0000 60000 T10331050 11022 21033 53001 FZRANO
  • 222256Z AUTO 23016G22KT 9SM -SN FEW034 SCT041 M03/M05 A2982 RMK AO2 SLP145 P0000 T10331050 FZRANO

TAF N/A
PAZA FIR / North America



MET'MAP, your aeronautical weather chart ! - Copyright ORBIFLY December 2007 - Disclaimer

ORBIFLY MET'MAP TEAM :

Programming & Development : Alexandra Zaïnal
Concept & original design : Baudouin d'Aumeries
Assistance for programming : Marc-Olivier Méhu
Technical & hardware support : Manuel Goepfert

Contact : metmap@orbifly.com




SOURCES & CREDITS :

   NOAA       Earth
Advisory